sensor_id;sensor_type;location;lat;lon;timestamp;P1;durP1;ratioP1;P2;durP2;ratioP2
15110;SDS011;7656;51.954;7.998;2023-11-21T00:00:02;12.50;;;7.13;;
15110;SDS011;7656;51.954;7.998;2023-11-21T00:04:33;9.77;;;7.50;;
15110;SDS011;7656;51.954;7.998;2023-11-21T00:08:54;8.23;;;6.17;;
15110;SDS011;7656;51.954;7.998;2023-11-21T00:13:16;10.67;;;7.03;;
15110;SDS011;7656;51.954;7.998;2023-11-21T00:17:38;7.90;;;5.70;;
15110;SDS011;7656;51.954;7.998;2023-11-21T00:22:00;9.53;;;6.53;;
15110;SDS011;7656;51.954;7.998;2023-11-21T00:26:22;9.30;;;6.30;;
15110;SDS011;7656;51.954;7.998;2023-11-21T00:30:54;11.10;;;6.20;;
15110;SDS011;7656;51.954;7.998;2023-11-21T00:35:15;9.13;;;5.93;;
15110;SDS011;7656;51.954;7.998;2023-11-21T00:39:37;10.73;;;5.87;;
15110;SDS011;7656;51.954;7.998;2023-11-21T00:44:00;7.30;;;6.03;;
15110;SDS011;7656;51.954;7.998;2023-11-21T00:48:22;9.30;;;5.53;;
15110;SDS011;7656;51.954;7.998;2023-11-21T00:52:43;6.53;;;5.53;;
15110;SDS011;7656;51.954;7.998;2023-11-21T00:57:05;10.07;;;6.50;;
15110;SDS011;7656;51.954;7.998;2023-11-21T01:01:26;7.73;;;5.43;;
15110;SDS011;7656;51.954;7.998;2023-11-21T01:05:48;7.40;;;5.13;;
15110;SDS011;7656;51.954;7.998;2023-11-21T01:10:10;9.73;;;5.97;;
15110;SDS011;7656;51.954;7.998;2023-11-21T01:14:32;8.23;;;5.90;;
15110;SDS011;7656;51.954;7.998;2023-11-21T01:18:54;6.80;;;6.07;;
15110;SDS011;7656;51.954;7.998;2023-11-21T01:23:15;11.57;;;6.50;;
15110;SDS011;7656;51.954;7.998;2023-11-21T01:27:37;7.83;;;6.30;;
15110;SDS011;7656;51.954;7.998;2023-11-21T01:31:59;9.37;;;6.27;;
15110;SDS011;7656;51.954;7.998;2023-11-21T01:36:20;6.77;;;5.63;;
15110;SDS011;7656;51.954;7.998;2023-11-21T01:40:42;7.07;;;5.33;;
15110;SDS011;7656;51.954;7.998;2023-11-21T01:45:04;8.03;;;5.70;;
15110;SDS011;7656;51.954;7.998;2023-11-21T01:49:26;8.47;;;6.07;;
15110;SDS011;7656;51.954;7.998;2023-11-21T01:53:49;7.03;;;6.33;;
15110;SDS011;7656;51.954;7.998;2023-11-21T01:58:10;8.27;;;6.30;;
15110;SDS011;7656;51.954;7.998;2023-11-21T02:02:33;9.90;;;6.33;;
15110;SDS011;7656;51.954;7.998;2023-11-21T02:06:54;8.47;;;6.07;;
15110;SDS011;7656;51.954;7.998;2023-11-21T02:11:16;8.27;;;6.30;;
15110;SDS011;7656;51.954;7.998;2023-11-21T02:15:41;7.73;;;5.63;;
15110;SDS011;7656;51.954;7.998;2023-11-21T02:20:02;10.23;;;6.87;;
15110;SDS011;7656;51.954;7.998;2023-11-21T02:24:27;10.23;;;6.00;;
15110;SDS011;7656;51.954;7.998;2023-11-21T02:28:48;9.40;;;6.00;;
15110;SDS011;7656;51.954;7.998;2023-11-21T02:33:10;11.07;;;6.53;;
15110;SDS011;7656;51.954;7.998;2023-11-21T02:37:32;9.30;;;6.90;;
15110;SDS011;7656;51.954;7.998;2023-11-21T02:41:55;9.83;;;6.33;;
15110;SDS011;7656;51.954;7.998;2023-11-21T02:46:17;8.43;;;6.33;;
15110;SDS011;7656;51.954;7.998;2023-11-21T02:50:38;11.13;;;6.17;;
15110;SDS011;7656;51.954;7.998;2023-11-21T02:55:00;10.17;;;7.13;;
15110;SDS011;7656;51.954;7.998;2023-11-21T02:59:24;11.73;;;6.90;;
15110;SDS011;7656;51.954;7.998;2023-11-21T03:03:46;10.13;;;6.50;;
15110;SDS011;7656;51.954;7.998;2023-11-21T03:08:08;9.83;;;6.37;;
15110;SDS011;7656;51.954;7.998;2023-11-21T03:12:29;8.70;;;6.00;;
15110;SDS011;7656;51.954;7.998;2023-11-21T03:16:51;10.63;;;6.57;;
15110;SDS011;7656;51.954;7.998;2023-11-21T03:21:12;10.87;;;6.90;;
15110;SDS011;7656;51.954;7.998;2023-11-21T03:25:34;9.47;;;7.30;;
15110;SDS011;7656;51.954;7.998;2023-11-21T03:29:55;14.10;;;8.23;;
15110;SDS011;7656;51.954;7.998;2023-11-21T03:34:27;10.10;;;7.60;;
15110;SDS011;7656;51.954;7.998;2023-11-21T03:38:49;11.90;;;8.47;;
15110;SDS011;7656;51.954;7.998;2023-11-21T03:43:10;15.90;;;8.37;;
15110;SDS011;7656;51.954;7.998;2023-11-21T03:47:33;14.13;;;8.37;;
15110;SDS011;7656;51.954;7.998;2023-11-21T03:51:55;14.20;;;8.13;;
15110;SDS011;7656;51.954;7.998;2023-11-21T03:56:17;12.50;;;9.10;;
15110;SDS011;7656;51.954;7.998;2023-11-21T04:00:38;11.57;;;8.70;;
15110;SDS011;7656;51.954;7.998;2023-11-21T04:05:00;14.17;;;8.57;;
15110;SDS011;7656;51.954;7.998;2023-11-21T04:09:22;10.70;;;8.50;;
15110;SDS011;7656;51.954;7.998;2023-11-21T04:13:45;15.33;;;8.87;;
15110;SDS011;7656;51.954;7.998;2023-11-21T04:18:07;11.87;;;8.67;;
15110;SDS011;7656;51.954;7.998;2023-11-21T04:22:28;12.80;;;8.57;;
15110;SDS011;7656;51.954;7.998;2023-11-21T04:26:50;11.37;;;8.73;;
15110;SDS011;7656;51.954;7.998;2023-11-21T04:31:12;11.53;;;8.90;;
15110;SDS011;7656;51.954;7.998;2023-11-21T04:35:33;10.20;;;8.20;;
15110;SDS011;7656;51.954;7.998;2023-11-21T04:39:54;15.93;;;8.47;;
15110;SDS011;7656;51.954;7.998;2023-11-21T04:44:16;12.83;;;9.83;;
15110;SDS011;7656;51.954;7.998;2023-11-21T04:48:38;11.90;;;8.00;;
15110;SDS011;7656;51.954;7.998;2023-11-21T04:52:59;15.10;;;8.73;;
15110;SDS011;7656;51.954;7.998;2023-11-21T04:57:21;14.60;;;8.07;;
15110;SDS011;7656;51.954;7.998;2023-11-21T05:01:42;14.83;;;8.33;;
15110;SDS011;7656;51.954;7.998;2023-11-21T05:06:04;14.73;;;9.03;;
15110;SDS011;7656;51.954;7.998;2023-11-21T05:10:25;12.53;;;8.57;;
15110;SDS011;7656;51.954;7.998;2023-11-21T05:14:47;15.33;;;9.17;;
15110;SDS011;7656;51.954;7.998;2023-11-21T05:19:09;10.80;;;8.33;;
15110;SDS011;7656;51.954;7.998;2023-11-21T05:23:32;13.30;;;8.87;;
15110;SDS011;7656;51.954;7.998;2023-11-21T05:27:54;13.77;;;8.73;;
15110;SDS011;7656;51.954;7.998;2023-11-21T05:32:15;13.73;;;9.27;;
15110;SDS011;7656;51.954;7.998;2023-11-21T05:36:37;11.83;;;8.13;;
15110;SDS011;7656;51.954;7.998;2023-11-21T05:40:59;10.03;;;8.60;;
15110;SDS011;7656;51.954;7.998;2023-11-21T05:45:21;13.47;;;9.13;;
15110;SDS011;7656;51.954;7.998;2023-11-21T05:49:42;14.07;;;9.07;;
15110;SDS011;7656;51.954;7.998;2023-11-21T05:54:05;13.07;;;8.17;;
15110;SDS011;7656;51.954;7.998;2023-11-21T05:58:28;15.10;;;9.13;;
15110;SDS011;7656;51.954;7.998;2023-11-21T06:02:50;12.83;;;9.17;;
15110;SDS011;7656;51.954;7.998;2023-11-21T06:07:14;16.13;;;9.10;;
15110;SDS011;7656;51.954;7.998;2023-11-21T06:11:36;17.93;;;9.53;;
15110;SDS011;7656;51.954;7.998;2023-11-21T06:15:58;18.43;;;9.77;;
15110;SDS011;7656;51.954;7.998;2023-11-21T06:20:19;19.80;;;10.17;;
15110;SDS011;7656;51.954;7.998;2023-11-21T06:24:41;16.60;;;10.40;;
15110;SDS011;7656;51.954;7.998;2023-11-21T06:29:03;17.83;;;9.80;;
15110;SDS011;7656;51.954;7.998;2023-11-21T06:33:24;13.60;;;8.83;;
15110;SDS011;7656;51.954;7.998;2023-11-21T06:37:47;13.93;;;9.23;;
15110;SDS011;7656;51.954;7.998;2023-11-21T06:42:09;14.77;;;9.47;;
15110;SDS011;7656;51.954;7.998;2023-11-21T06:46:31;14.33;;;9.80;;
15110;SDS011;7656;51.954;7.998;2023-11-21T06:50:53;15.97;;;8.93;;
15110;SDS011;7656;51.954;7.998;2023-11-21T06:55:14;15.93;;;9.33;;
15110;SDS011;7656;51.954;7.998;2023-11-21T06:59:36;12.17;;;8.40;;
15110;SDS011;7656;51.954;7.998;2023-11-21T07:03:58;16.97;;;10.10;;
15110;SDS011;7656;51.954;7.998;2023-11-21T07:08:20;17.47;;;9.13;;
15110;SDS011;7656;51.954;7.998;2023-11-21T07:12:41;19.67;;;10.47;;
15110;SDS011;7656;51.954;7.998;2023-11-21T07:17:03;15.83;;;9.17;;
15110;SDS011;7656;51.954;7.998;2023-11-21T07:21:24;16.27;;;9.27;;
15110;SDS011;7656;51.954;7.998;2023-11-21T07:25:46;19.57;;;9.97;;
15110;SDS011;7656;51.954;7.998;2023-11-21T07:30:07;15.47;;;9.67;;
15110;SDS011;7656;51.954;7.998;2023-11-21T07:34:30;15.80;;;9.63;;
15110;SDS011;7656;51.954;7.998;2023-11-21T07:38:52;16.00;;;10.30;;
15110;SDS011;7656;51.954;7.998;2023-11-21T07:43:13;17.80;;;9.03;;
15110;SDS011;7656;51.954;7.998;2023-11-21T07:47:35;19.53;;;9.07;;
15110;SDS011;7656;51.954;7.998;2023-11-21T07:51:56;19.03;;;9.63;;
15110;SDS011;7656;51.954;7.998;2023-11-21T07:56:18;20.17;;;10.17;;
15110;SDS011;7656;51.954;7.998;2023-11-21T08:00:39;15.27;;;10.17;;
15110;SDS011;7656;51.954;7.998;2023-11-21T08:05:01;17.37;;;10.00;;
15110;SDS011;7656;51.954;7.998;2023-11-21T08:09:22;17.87;;;10.27;;
15110;SDS011;7656;51.954;7.998;2023-11-21T08:13:44;18.43;;;9.50;;
15110;SDS011;7656;51.954;7.998;2023-11-21T08:18:07;20.97;;;10.20;;
15110;SDS011;7656;51.954;7.998;2023-11-21T08:22:28;16.67;;;10.07;;
15110;SDS011;7656;51.954;7.998;2023-11-21T08:26:50;13.50;;;9.23;;
15110;SDS011;7656;51.954;7.998;2023-11-21T08:31:12;18.00;;;10.40;;
15110;SDS011;7656;51.954;7.998;2023-11-21T08:35:34;14.93;;;8.87;;
15110;SDS011;7656;51.954;7.998;2023-11-21T08:39:59;15.77;;;9.27;;
15110;SDS011;7656;51.954;7.998;2023-11-21T08:44:20;16.97;;;9.63;;
15110;SDS011;7656;51.954;7.998;2023-11-21T08:48:43;18.40;;;9.80;;
15110;SDS011;7656;51.954;7.998;2023-11-21T08:53:05;19.30;;;9.37;;
15110;SDS011;7656;51.954;7.998;2023-11-21T08:57:26;16.77;;;9.90;;
15110;SDS011;7656;51.954;7.998;2023-11-21T09:01:48;18.03;;;9.47;;
15110;SDS011;7656;51.954;7.998;2023-11-21T09:06:09;17.43;;;10.27;;
15110;SDS011;7656;51.954;7.998;2023-11-21T09:10:32;16.57;;;8.63;;
15110;SDS011;7656;51.954;7.998;2023-11-21T09:14:56;14.00;;;8.43;;
15110;SDS011;7656;51.954;7.998;2023-11-21T09:19:17;13.00;;;8.17;;
15110;SDS011;7656;51.954;7.998;2023-11-21T09:23:39;11.93;;;7.97;;
15110;SDS011;7656;51.954;7.998;2023-11-21T09:28:01;12.60;;;7.93;;
15110;SDS011;7656;51.954;7.998;2023-11-21T09:32:29;12.43;;;8.13;;
15110;SDS011;7656;51.954;7.998;2023-11-21T09:36:52;11.47;;;7.07;;
15110;SDS011;7656;51.954;7.998;2023-11-21T09:41:26;10.30;;;6.60;;
15110;SDS011;7656;51.954;7.998;2023-11-21T09:45:56;13.57;;;6.77;;
15110;SDS011;7656;51.954;7.998;2023-11-21T09:50:21;10.43;;;6.60;;
15110;SDS011;7656;51.954;7.998;2023-11-21T09:54:44;14.10;;;6.63;;
15110;SDS011;7656;51.954;7.998;2023-11-21T09:59:06;9.63;;;6.07;;
15110;SDS011;7656;51.954;7.998;2023-11-21T10:03:30;11.23;;;6.97;;
15110;SDS011;7656;51.954;7.998;2023-11-21T10:07:53;10.00;;;5.93;;
15110;SDS011;7656;51.954;7.998;2023-11-21T10:12:15;9.73;;;6.27;;
15110;SDS011;7656;51.954;7.998;2023-11-21T10:16:37;10.30;;;5.73;;
15110;SDS011;7656;51.954;7.998;2023-11-21T10:20:59;10.10;;;5.60;;
15110;SDS011;7656;51.954;7.998;2023-11-21T10:25:21;8.73;;;6.17;;
15110;SDS011;7656;51.954;7.998;2023-11-21T10:29:43;10.70;;;6.37;;
15110;SDS011;7656;51.954;7.998;2023-11-21T10:34:14;10.80;;;6.40;;
15110;SDS011;7656;51.954;7.998;2023-11-21T10:38:41;9.37;;;6.30;;
15110;SDS011;7656;51.954;7.998;2023-11-21T10:43:07;9.30;;;5.80;;
15110;SDS011;7656;51.954;7.998;2023-11-21T10:47:30;10.40;;;6.37;;
15110;SDS011;7656;51.954;7.998;2023-11-21T10:51:53;7.93;;;5.17;;
15110;SDS011;7656;51.954;7.998;2023-11-21T10:56:15;7.57;;;5.30;;
15110;SDS011;7656;51.954;7.998;2023-11-21T11:00:40;5.87;;;4.30;;
15110;SDS011;7656;51.954;7.998;2023-11-21T11:05:01;7.83;;;4.90;;
15110;SDS011;7656;51.954;7.998;2023-11-21T11:09:24;6.53;;;4.37;;
15110;SDS011;7656;51.954;7.998;2023-11-21T11:13:45;6.00;;;3.67;;
15110;SDS011;7656;51.954;7.998;2023-11-21T11:18:07;6.40;;;3.33;;
15110;SDS011;7656;51.954;7.998;2023-11-21T11:22:31;4.30;;;3.20;;
15110;SDS011;7656;51.954;7.998;2023-11-21T11:27:11;4.17;;;3.10;;
15110;SDS011;7656;51.954;7.998;2023-11-21T11:36:37;4.50;;;3.60;;
15110;SDS011;7656;51.954;7.998;2023-11-21T11:41:06;4.40;;;3.30;;
15110;SDS011;7656;51.954;7.998;2023-11-21T11:45:33;5.40;;;3.40;;
15110;SDS011;7656;51.954;7.998;2023-11-21T11:50:05;4.60;;;3.73;;
15110;SDS011;7656;51.954;7.998;2023-11-21T11:54:35;5.23;;;3.57;;
15110;SDS011;7656;51.954;7.998;2023-11-21T11:59:01;4.20;;;3.30;;
15110;SDS011;7656;51.954;7.998;2023-11-21T12:03:23;5.00;;;3.60;;
15110;SDS011;7656;51.954;7.998;2023-11-21T12:07:45;4.13;;;3.00;;
15110;SDS011;7656;51.954;7.998;2023-11-21T12:12:08;3.87;;;2.90;;
15110;SDS011;7656;51.954;7.998;2023-11-21T12:16:32;5.83;;;3.10;;
15110;SDS011;7656;51.954;7.998;2023-11-21T12:20:53;5.53;;;3.23;;
15110;SDS011;7656;51.954;7.998;2023-11-21T12:29:49;3.13;;;2.50;;
15110;SDS011;7656;51.954;7.998;2023-11-21T12:34:11;4.00;;;2.97;;
15110;SDS011;7656;51.954;7.998;2023-11-21T12:38:34;4.20;;;3.10;;
15110;SDS011;7656;51.954;7.998;2023-11-21T12:42:58;2.90;;;2.60;;
15110;SDS011;7656;51.954;7.998;2023-11-21T12:47:21;5.73;;;4.23;;
15110;SDS011;7656;51.954;7.998;2023-11-21T12:51:44;5.97;;;5.30;;
15110;SDS011;7656;51.954;7.998;2023-11-21T12:56:11;6.37;;;4.90;;
15110;SDS011;7656;51.954;7.998;2023-11-21T13:00:34;10.60;;;6.17;;
15110;SDS011;7656;51.954;7.998;2023-11-21T13:05:00;8.97;;;6.47;;
15110;SDS011;7656;51.954;7.998;2023-11-21T13:09:26;12.47;;;7.20;;
15110;SDS011;7656;51.954;7.998;2023-11-21T13:13:51;9.67;;;6.67;;
15110;SDS011;7656;51.954;7.998;2023-11-21T13:18:16;12.03;;;6.67;;
15110;SDS011;7656;51.954;7.998;2023-11-21T13:22:38;9.27;;;6.47;;
15110;SDS011;7656;51.954;7.998;2023-11-21T13:27:00;6.70;;;5.93;;
15110;SDS011;7656;51.954;7.998;2023-11-21T13:31:21;8.23;;;5.57;;
15110;SDS011;7656;51.954;7.998;2023-11-21T13:35:51;8.27;;;5.80;;
15110;SDS011;7656;51.954;7.998;2023-11-21T13:40:13;8.53;;;4.37;;
15110;SDS011;7656;51.954;7.998;2023-11-21T13:44:42;6.63;;;4.80;;
15110;SDS011;7656;51.954;7.998;2023-11-21T13:49:07;7.60;;;4.40;;
15110;SDS011;7656;51.954;7.998;2023-11-21T13:53:30;6.43;;;4.20;;
15110;SDS011;7656;51.954;7.998;2023-11-21T13:57:51;5.17;;;4.50;;
15110;SDS011;7656;51.954;7.998;2023-11-21T14:02:13;5.27;;;3.83;;
15110;SDS011;7656;51.954;7.998;2023-11-21T14:06:38;5.37;;;4.33;;
15110;SDS011;7656;51.954;7.998;2023-11-21T14:11:08;9.47;;;4.77;;
15110;SDS011;7656;51.954;7.998;2023-11-21T14:15:32;7.70;;;4.83;;
15110;SDS011;7656;51.954;7.998;2023-11-21T14:19:58;7.13;;;5.17;;
15110;SDS011;7656;51.954;7.998;2023-11-21T14:24:19;8.67;;;5.17;;
15110;SDS011;7656;51.954;7.998;2023-11-21T14:28:44;6.67;;;4.67;;
15110;SDS011;7656;51.954;7.998;2023-11-21T14:33:05;8.97;;;5.37;;
15110;SDS011;7656;51.954;7.998;2023-11-21T14:37:28;9.60;;;5.30;;
15110;SDS011;7656;51.954;7.998;2023-11-21T14:41:50;6.37;;;4.47;;
15110;SDS011;7656;51.954;7.998;2023-11-21T14:46:13;6.63;;;4.77;;
15110;SDS011;7656;51.954;7.998;2023-11-21T14:50:37;8.93;;;6.20;;
15110;SDS011;7656;51.954;7.998;2023-11-21T14:55:03;7.60;;;5.00;;
15110;SDS011;7656;51.954;7.998;2023-11-21T14:59:43;5.63;;;4.70;;
15110;SDS011;7656;51.954;7.998;2023-11-21T15:04:11;6.50;;;4.90;;
15110;SDS011;7656;51.954;7.998;2023-11-21T15:08:44;5.23;;;4.17;;
15110;SDS011;7656;51.954;7.998;2023-11-21T15:13:17;5.17;;;3.70;;
15110;SDS011;7656;51.954;7.998;2023-11-21T15:17:39;5.20;;;3.77;;
15110;SDS011;7656;51.954;7.998;2023-11-21T15:22:03;5.60;;;4.17;;
15110;SDS011;7656;51.954;7.998;2023-11-21T15:26:26;7.43;;;5.23;;
15110;SDS011;7656;51.954;7.998;2023-11-21T15:30:48;7.47;;;5.47;;
15110;SDS011;7656;51.954;7.998;2023-11-21T15:35:11;11.13;;;4.90;;
15110;SDS011;7656;51.954;7.998;2023-11-21T15:39:34;9.43;;;5.47;;
15110;SDS011;7656;51.954;7.998;2023-11-21T15:43:57;9.17;;;4.93;;
15110;SDS011;7656;51.954;7.998;2023-11-21T15:48:18;7.97;;;5.67;;
15110;SDS011;7656;51.954;7.998;2023-11-21T15:52:40;7.00;;;4.87;;
15110;SDS011;7656;51.954;7.998;2023-11-21T15:57:03;6.73;;;4.80;;
15110;SDS011;7656;51.954;7.998;2023-11-21T16:01:26;7.07;;;5.43;;
15110;SDS011;7656;51.954;7.998;2023-11-21T16:05:47;7.37;;;4.80;;
15110;SDS011;7656;51.954;7.998;2023-11-21T16:10:09;7.63;;;5.30;;
15110;SDS011;7656;51.954;7.998;2023-11-21T16:14:32;6.80;;;4.97;;
15110;SDS011;7656;51.954;7.998;2023-11-21T16:19:01;6.90;;;5.07;;
15110;SDS011;7656;51.954;7.998;2023-11-21T16:23:23;7.20;;;5.40;;
15110;SDS011;7656;51.954;7.998;2023-11-21T16:27:44;6.93;;;5.20;;
15110;SDS011;7656;51.954;7.998;2023-11-21T16:32:06;8.60;;;6.13;;
15110;SDS011;7656;51.954;7.998;2023-11-21T16:36:27;9.20;;;6.30;;
15110;SDS011;7656;51.954;7.998;2023-11-21T16:40:50;8.60;;;6.23;;
15110;SDS011;7656;51.954;7.998;2023-11-21T16:45:12;7.77;;;6.33;;
15110;SDS011;7656;51.954;7.998;2023-11-21T16:49:34;7.43;;;5.40;;
15110;SDS011;7656;51.954;7.998;2023-11-21T16:53:58;8.40;;;5.90;;
15110;SDS011;7656;51.954;7.998;2023-11-21T16:58:21;8.60;;;5.63;;
15110;SDS011;7656;51.954;7.998;2023-11-21T17:02:42;7.43;;;5.30;;
15110;SDS011;7656;51.954;7.998;2023-11-21T17:07:04;9.60;;;5.30;;
15110;SDS011;7656;51.954;7.998;2023-11-21T17:11:25;9.43;;;5.10;;
15110;SDS011;7656;51.954;7.998;2023-11-21T17:15:50;7.63;;;5.97;;
15110;SDS011;7656;51.954;7.998;2023-11-21T17:20:11;7.57;;;5.70;;
15110;SDS011;7656;51.954;7.998;2023-11-21T17:24:34;7.50;;;5.90;;
15110;SDS011;7656;51.954;7.998;2023-11-21T17:28:56;8.73;;;6.23;;
15110;SDS011;7656;51.954;7.998;2023-11-21T17:33:18;7.83;;;5.53;;
15110;SDS011;7656;51.954;7.998;2023-11-21T17:37:40;8.27;;;5.83;;
15110;SDS011;7656;51.954;7.998;2023-11-21T17:42:02;9.70;;;6.30;;
15110;SDS011;7656;51.954;7.998;2023-11-21T17:46:24;7.83;;;5.50;;
15110;SDS011;7656;51.954;7.998;2023-11-21T17:50:45;7.93;;;5.97;;
15110;SDS011;7656;51.954;7.998;2023-11-21T17:55:07;7.87;;;5.67;;
15110;SDS011;7656;51.954;7.998;2023-11-21T17:59:29;6.80;;;5.57;;
15110;SDS011;7656;51.954;7.998;2023-11-21T18:03:51;8.97;;;6.03;;
15110;SDS011;7656;51.954;7.998;2023-11-21T18:08:12;7.17;;;5.07;;
15110;SDS011;7656;51.954;7.998;2023-11-21T18:12:35;8.47;;;5.27;;
15110;SDS011;7656;51.954;7.998;2023-11-21T18:16:56;7.90;;;5.20;;
15110;SDS011;7656;51.954;7.998;2023-11-21T18:21:18;6.37;;;4.93;;
15110;SDS011;7656;51.954;7.998;2023-11-21T18:25:39;8.47;;;5.37;;
15110;SDS011;7656;51.954;7.998;2023-11-21T18:30:01;7.70;;;5.27;;
15110;SDS011;7656;51.954;7.998;2023-11-21T18:34:23;6.07;;;5.00;;
15110;SDS011;7656;51.954;7.998;2023-11-21T18:38:45;6.40;;;4.87;;
15110;SDS011;7656;51.954;7.998;2023-11-21T18:43:06;8.10;;;5.00;;
15110;SDS011;7656;51.954;7.998;2023-11-21T18:47:29;8.50;;;5.40;;
15110;SDS011;7656;51.954;7.998;2023-11-21T18:51:50;6.87;;;4.87;;
15110;SDS011;7656;51.954;7.998;2023-11-21T18:56:19;5.90;;;5.00;;
15110;SDS011;7656;51.954;7.998;2023-11-21T19:00:44;5.60;;;4.77;;
15110;SDS011;7656;51.954;7.998;2023-11-21T19:05:05;6.63;;;4.73;;
15110;SDS011;7656;51.954;7.998;2023-11-21T19:09:28;10.70;;;5.50;;
15110;SDS011;7656;51.954;7.998;2023-11-21T19:13:51;8.13;;;5.20;;
15110;SDS011;7656;51.954;7.998;2023-11-21T19:18:13;9.40;;;5.27;;
15110;SDS011;7656;51.954;7.998;2023-11-21T19:22:35;8.40;;;5.60;;
15110;SDS011;7656;51.954;7.998;2023-11-21T19:26:57;8.40;;;5.73;;
15110;SDS011;7656;51.954;7.998;2023-11-21T19:31:20;6.73;;;5.73;;
15110;SDS011;7656;51.954;7.998;2023-11-21T19:35:42;6.77;;;5.63;;
15110;SDS011;7656;51.954;7.998;2023-11-21T19:40:06;7.20;;;5.70;;
15110;SDS011;7656;51.954;7.998;2023-11-21T19:44:27;6.83;;;5.33;;
15110;SDS011;7656;51.954;7.998;2023-11-21T19:48:49;7.50;;;5.47;;
15110;SDS011;7656;51.954;7.998;2023-11-21T19:53:13;6.40;;;4.40;;
15110;SDS011;7656;51.954;7.998;2023-11-21T19:57:34;5.20;;;3.70;;
15110;SDS011;7656;51.954;7.998;2023-11-21T20:01:57;4.13;;;3.40;;
15110;SDS011;7656;51.954;7.998;2023-11-21T20:06:19;5.07;;;4.13;;
15110;SDS011;7656;51.954;7.998;2023-11-21T20:10:41;6.23;;;4.97;;
15110;SDS011;7656;51.954;7.998;2023-11-21T20:15:03;6.40;;;4.20;;
15110;SDS011;7656;51.954;7.998;2023-11-21T20:19:26;6.57;;;4.30;;
15110;SDS011;7656;51.954;7.998;2023-11-21T20:23:48;6.27;;;4.40;;
15110;SDS011;7656;51.954;7.998;2023-11-21T20:28:10;6.43;;;4.80;;
15110;SDS011;7656;51.954;7.998;2023-11-21T20:32:34;4.93;;;4.10;;
15110;SDS011;7656;51.954;7.998;2023-11-21T20:36:56;5.07;;;3.60;;
15110;SDS011;7656;51.954;7.998;2023-11-21T20:41:18;5.13;;;4.00;;
15110;SDS011;7656;51.954;7.998;2023-11-21T20:45:40;4.47;;;3.93;;
15110;SDS011;7656;51.954;7.998;2023-11-21T20:50:02;4.57;;;3.63;;
15110;SDS011;7656;51.954;7.998;2023-11-21T20:54:24;6.07;;;4.20;;
15110;SDS011;7656;51.954;7.998;2023-11-21T20:58:46;5.93;;;4.40;;
15110;SDS011;7656;51.954;7.998;2023-11-21T21:03:07;5.37;;;3.90;;
15110;SDS011;7656;51.954;7.998;2023-11-21T21:07:29;5.23;;;4.13;;
15110;SDS011;7656;51.954;7.998;2023-11-21T21:11:51;6.23;;;4.33;;
15110;SDS011;7656;51.954;7.998;2023-11-21T21:16:12;5.13;;;3.67;;
15110;SDS011;7656;51.954;7.998;2023-11-21T21:20:34;4.53;;;3.50;;
15110;SDS011;7656;51.954;7.998;2023-11-21T21:24:56;4.27;;;3.87;;
15110;SDS011;7656;51.954;7.998;2023-11-21T21:29:18;5.27;;;3.63;;
15110;SDS011;7656;51.954;7.998;2023-11-21T21:33:42;5.23;;;4.13;;
15110;SDS011;7656;51.954;7.998;2023-11-21T21:38:04;4.70;;;3.93;;
15110;SDS011;7656;51.954;7.998;2023-11-21T21:42:25;5.17;;;3.43;;
15110;SDS011;7656;51.954;7.998;2023-11-21T21:46:47;5.30;;;3.83;;
15110;SDS011;7656;51.954;7.998;2023-11-21T21:51:18;4.47;;;4.03;;
15110;SDS011;7656;51.954;7.998;2023-11-21T21:55:39;5.87;;;3.93;;
15110;SDS011;7656;51.954;7.998;2023-11-21T22:00:02;6.20;;;4.70;;
15110;SDS011;7656;51.954;7.998;2023-11-21T22:04:32;5.13;;;4.17;;
15110;SDS011;7656;51.954;7.998;2023-11-21T22:08:57;4.83;;;4.27;;
15110;SDS011;7656;51.954;7.998;2023-11-21T22:13:20;6.63;;;4.87;;
15110;SDS011;7656;51.954;7.998;2023-11-21T22:17:41;5.97;;;4.47;;
15110;SDS011;7656;51.954;7.998;2023-11-21T22:22:03;7.60;;;5.17;;
15110;SDS011;7656;51.954;7.998;2023-11-21T22:26:25;5.47;;;4.30;;
15110;SDS011;7656;51.954;7.998;2023-11-21T22:30:47;6.03;;;4.53;;
15110;SDS011;7656;51.954;7.998;2023-11-21T22:35:08;5.53;;;4.57;;
15110;SDS011;7656;51.954;7.998;2023-11-21T22:39:30;5.57;;;4.53;;
15110;SDS011;7656;51.954;7.998;2023-11-21T22:43:53;6.30;;;4.47;;
15110;SDS011;7656;51.954;7.998;2023-11-21T22:48:14;7.47;;;4.43;;
15110;SDS011;7656;51.954;7.998;2023-11-21T22:52:36;6.10;;;4.03;;
15110;SDS011;7656;51.954;7.998;2023-11-21T22:56:57;4.77;;;3.70;;
15110;SDS011;7656;51.954;7.998;2023-11-21T23:01:19;5.17;;;4.10;;
15110;SDS011;7656;51.954;7.998;2023-11-21T23:05:41;5.83;;;3.90;;
15110;SDS011;7656;51.954;7.998;2023-11-21T23:10:02;5.40;;;3.50;;
15110;SDS011;7656;51.954;7.998;2023-11-21T23:14:27;5.43;;;3.33;;
15110;SDS011;7656;51.954;7.998;2023-11-21T23:18:49;6.70;;;4.13;;
15110;SDS011;7656;51.954;7.998;2023-11-21T23:23:12;4.97;;;4.00;;
15110;SDS011;7656;51.954;7.998;2023-11-21T23:27:34;4.57;;;3.50;;
15110;SDS011;7656;51.954;7.998;2023-11-21T23:31:55;4.37;;;3.43;;
15110;SDS011;7656;51.954;7.998;2023-11-21T23:36:17;6.00;;;3.33;;
15110;SDS011;7656;51.954;7.998;2023-11-21T23:40:41;3.37;;;3.00;;
15110;SDS011;7656;51.954;7.998;2023-11-21T23:45:07;5.47;;;3.40;;
15110;SDS011;7656;51.954;7.998;2023-11-21T23:49:29;5.03;;;3.73;;
15110;SDS011;7656;51.954;7.998;2023-11-21T23:53:51;4.23;;;3.37;;
15110;SDS011;7656;51.954;7.998;2023-11-21T23:58:12;4.97;;;3.50;;
